Irving South's Hourly Summary for Friday, March 17, 2017
Hour Temp
(f)
RH
(%)
Solar Rad.
(MJ/m2)
Rainfall
(in)
Wind
(mph)
3/17/2017 12:00 AM 65 74 0 0 1.17
3/17/2017 1:00 AM 66 71 0 0 3.85
3/17/2017 2:00 AM 66 72 0 0 4.49
3/17/2017 3:00 AM 65 73 0 0 4.49
3/17/2017 4:00 AM 66 72 0 0 4.63
3/17/2017 5:00 AM 66 69 0 0 6.16
3/17/2017 6:00 AM 67 69 0 0 6.07
3/17/2017 7:00 AM 67 68 0 0 5.83
3/17/2017 8:00 AM 67 67 0.01 0 4.18
3/17/2017 9:00 AM 67 67 0.1 0 4.5
3/17/2017 10:00 AM 68 67 0.34 0 5.22
3/17/2017 11:00 AM 69 64 0.66 0 5.59
3/17/2017 12:00 PM 71 63 1.35 0 7.01
3/17/2017 1:00 PM 72 58 2 0 8.45
3/17/2017 2:00 PM 73 57 1.66 0 6.45
3/17/2017 3:00 PM 73 58 1.12 0 6.01
3/17/2017 4:00 PM 74 55 1.38 0 6.25
3/17/2017 5:00 PM 75 54 0.87 0 5.63
3/17/2017 6:00 PM 76 50 0.72 0 5.75
3/17/2017 7:00 PM 77 49 0.55 0 4.73
3/17/2017 8:00 PM 75 49 0.04 0 1.66
3/17/2017 9:00 PM 72 57 0 0 0.28
3/17/2017 10:00 PM 71 59 0 0 0.04
3/17/2017 11:00 PM 70 60 0 0 0.31
Data Summary 69 62 10.80 0.00 4.53